sensor_id;sensor_type;location;lat;lon;timestamp;P1;durP1;ratioP1;P2;durP2;ratioP2
21546;SDS011;41275;51.912;4.388;2022-09-30T00:03:11;7.28;;;4.22;;
21546;SDS011;41275;51.912;4.388;2022-09-30T00:08:33;7.70;;;4.43;;
21546;SDS011;41275;51.912;4.388;2022-09-30T00:13:55;7.47;;;4.13;;
21546;SDS011;41275;51.912;4.388;2022-09-30T00:19:18;8.32;;;3.80;;
21546;SDS011;41275;51.912;4.388;2022-09-30T00:24:39;5.88;;;3.00;;
21546;SDS011;41275;51.912;4.388;2022-09-30T00:30:01;6.17;;;2.77;;
21546;SDS011;41275;51.912;4.388;2022-09-30T00:35:22;4.68;;;2.63;;
21546;SDS011;41275;51.912;4.388;2022-09-30T00:40:43;5.15;;;2.38;;
21546;SDS011;41275;51.912;4.388;2022-09-30T00:46:05;4.38;;;2.60;;
21546;SDS011;41275;51.912;4.388;2022-09-30T00:51:40;4.85;;;2.50;;
21546;SDS011;41275;51.912;4.388;2022-09-30T00:57:05;4.22;;;2.25;;
21546;SDS011;41275;51.912;4.388;2022-09-30T01:02:28;3.95;;;2.28;;
21546;SDS011;41275;51.912;4.388;2022-09-30T01:07:50;4.57;;;2.22;;
21546;SDS011;41275;51.912;4.388;2022-09-30T01:13:13;4.30;;;2.55;;
21546;SDS011;41275;51.912;4.388;2022-09-30T01:25:01;4.40;;;2.40;;
21546;SDS011;41275;51.912;4.388;2022-09-30T01:36:38;5.60;;;2.30;;
21546;SDS011;41275;51.912;4.388;2022-09-30T01:48:04;5.28;;;2.60;;
21546;SDS011;41275;51.912;4.388;2022-09-30T01:53:41;5.10;;;2.70;;
21546;SDS011;41275;51.912;4.388;2022-09-30T02:04:35;6.60;;;2.77;;
21546;SDS011;41275;51.912;4.388;2022-09-30T02:10:02;5.57;;;2.58;;
21546;SDS011;41275;51.912;4.388;2022-09-30T02:15:37;5.13;;;2.50;;
21546;SDS011;41275;51.912;4.388;2022-09-30T02:21:00;4.67;;;2.60;;
21546;SDS011;41275;51.912;4.388;2022-09-30T02:26:25;5.57;;;3.03;;
21546;SDS011;41275;51.912;4.388;2022-09-30T02:31:50;5.43;;;3.20;;
21546;SDS011;41275;51.912;4.388;2022-09-30T02:37:19;6.53;;;3.03;;
21546;SDS011;41275;51.912;4.388;2022-09-30T02:42:47;5.70;;;3.13;;
21546;SDS011;41275;51.912;4.388;2022-09-30T02:48:26;5.80;;;3.27;;
21546;SDS011;41275;51.912;4.388;2022-09-30T02:53:56;5.75;;;3.30;;
21546;SDS011;41275;51.912;4.388;2022-09-30T02:59:39;6.53;;;3.35;;
21546;SDS011;41275;51.912;4.388;2022-09-30T03:05:01;6.50;;;3.42;;
21546;SDS011;41275;51.912;4.388;2022-09-30T03:10:23;6.75;;;3.60;;
21546;SDS011;41275;51.912;4.388;2022-09-30T03:15:46;6.15;;;3.53;;
21546;SDS011;41275;51.912;4.388;2022-09-30T03:21:57;8.73;;;4.17;;
21546;SDS011;41275;51.912;4.388;2022-09-30T03:27:24;6.37;;;3.77;;
21546;SDS011;41275;51.912;4.388;2022-09-30T03:50:28;8.65;;;4.82;;
21546;SDS011;41275;51.912;4.388;2022-09-30T03:55:51;8.32;;;4.60;;
21546;SDS011;41275;51.912;4.388;2022-09-30T04:01:16;7.65;;;4.80;;
21546;SDS011;41275;51.912;4.388;2022-09-30T04:06:41;8.03;;;5.30;;
21546;SDS011;41275;51.912;4.388;2022-09-30T04:12:03;10.47;;;5.50;;
21546;SDS011;41275;51.912;4.388;2022-09-30T04:17:24;9.00;;;5.25;;
21546;SDS011;41275;51.912;4.388;2022-09-30T04:22:46;10.05;;;6.15;;
21546;SDS011;41275;51.912;4.388;2022-09-30T04:28:07;14.00;;;6.40;;
21546;SDS011;41275;51.912;4.388;2022-09-30T04:33:28;8.75;;;5.45;;
21546;SDS011;41275;51.912;4.388;2022-09-30T04:38:49;10.93;;;6.40;;
21546;SDS011;41275;51.912;4.388;2022-09-30T04:44:12;12.40;;;6.60;;
21546;SDS011;41275;51.912;4.388;2022-09-30T04:49:33;13.60;;;6.97;;
21546;SDS011;41275;51.912;4.388;2022-09-30T04:54:55;12.30;;;7.20;;
21546;SDS011;41275;51.912;4.388;2022-09-30T05:00:16;9.32;;;6.40;;
21546;SDS011;41275;51.912;4.388;2022-09-30T05:05:37;11.68;;;6.93;;
21546;SDS011;41275;51.912;4.388;2022-09-30T05:11:00;9.88;;;6.25;;
21546;SDS011;41275;51.912;4.388;2022-09-30T05:16:28;11.02;;;6.82;;
21546;SDS011;41275;51.912;4.388;2022-09-30T05:21:49;10.23;;;6.53;;
21546;SDS011;41275;51.912;4.388;2022-09-30T05:27:11;11.30;;;6.75;;
21546;SDS011;41275;51.912;4.388;2022-09-30T05:32:33;12.55;;;6.90;;
21546;SDS011;41275;51.912;4.388;2022-09-30T05:37:54;12.60;;;7.50;;
21546;SDS011;41275;51.912;4.388;2022-09-30T05:43:15;11.30;;;7.40;;
21546;SDS011;41275;51.912;4.388;2022-09-30T05:48:36;11.80;;;7.72;;
21546;SDS011;41275;51.912;4.388;2022-09-30T05:53:58;13.55;;;8.27;;
21546;SDS011;41275;51.912;4.388;2022-09-30T05:59:19;13.57;;;7.60;;
21546;SDS011;41275;51.912;4.388;2022-09-30T06:04:40;13.38;;;7.25;;
21546;SDS011;41275;51.912;4.388;2022-09-30T06:10:02;13.23;;;8.37;;
21546;SDS011;41275;51.912;4.388;2022-09-30T06:15:25;10.52;;;6.40;;
21546;SDS011;41275;51.912;4.388;2022-09-30T06:20:46;10.57;;;6.60;;
21546;SDS011;41275;51.912;4.388;2022-09-30T06:26:09;10.70;;;6.32;;
21546;SDS011;41275;51.912;4.388;2022-09-30T06:31:32;12.55;;;8.05;;
21546;SDS011;41275;51.912;4.388;2022-09-30T06:36:53;11.70;;;7.55;;
21546;SDS011;41275;51.912;4.388;2022-09-30T06:42:14;13.90;;;8.20;;
21546;SDS011;41275;51.912;4.388;2022-09-30T06:47:36;17.40;;;8.88;;
21546;SDS011;41275;51.912;4.388;2022-09-30T06:52:58;12.68;;;8.48;;
21546;SDS011;41275;51.912;4.388;2022-09-30T06:58:21;11.68;;;7.45;;
21546;SDS011;41275;51.912;4.388;2022-09-30T07:03:44;13.00;;;7.63;;
21546;SDS011;41275;51.912;4.388;2022-09-30T07:09:06;10.48;;;6.97;;
21546;SDS011;41275;51.912;4.388;2022-09-30T07:14:28;11.15;;;6.88;;
21546;SDS011;41275;51.912;4.388;2022-09-30T07:19:50;9.93;;;6.53;;
21546;SDS011;41275;51.912;4.388;2022-09-30T07:25:13;9.40;;;5.70;;
21546;SDS011;41275;51.912;4.388;2022-09-30T07:30:35;9.55;;;5.68;;
21546;SDS011;41275;51.912;4.388;2022-09-30T07:35:57;7.03;;;5.10;;
21546;SDS011;41275;51.912;4.388;2022-09-30T07:41:21;6.22;;;4.68;;
21546;SDS011;41275;51.912;4.388;2022-09-30T07:46:49;6.88;;;4.53;;
21546;SDS011;41275;51.912;4.388;2022-09-30T07:52:11;6.30;;;4.18;;
21546;SDS011;41275;51.912;4.388;2022-09-30T07:57:33;8.50;;;4.10;;
21546;SDS011;41275;51.912;4.388;2022-09-30T08:02:57;6.83;;;3.63;;
21546;SDS011;41275;51.912;4.388;2022-09-30T08:08:18;7.37;;;3.53;;
21546;SDS011;41275;51.912;4.388;2022-09-30T08:13:40;8.25;;;3.53;;
21546;SDS011;41275;51.912;4.388;2022-09-30T08:19:01;4.87;;;2.70;;
21546;SDS011;41275;51.912;4.388;2022-09-30T08:24:24;6.53;;;2.50;;
21546;SDS011;41275;51.912;4.388;2022-09-30T08:29:45;4.13;;;2.07;;
21546;SDS011;41275;51.912;4.388;2022-09-30T08:35:09;4.22;;;1.92;;
21546;SDS011;41275;51.912;4.388;2022-09-30T08:40:35;4.35;;;1.95;;
21546;SDS011;41275;51.912;4.388;2022-09-30T08:46:08;3.63;;;1.77;;
21546;SDS011;41275;51.912;4.388;2022-09-30T08:51:38;3.22;;;1.70;;
21546;SDS011;41275;51.912;4.388;2022-09-30T08:57:05;4.03;;;1.50;;
21546;SDS011;41275;51.912;4.388;2022-09-30T09:07:57;3.23;;;1.40;;
21546;SDS011;41275;51.912;4.388;2022-09-30T09:30:16;3.53;;;1.53;;
21546;SDS011;41275;51.912;4.388;2022-09-30T09:35:46;3.05;;;1.30;;
21546;SDS011;41275;51.912;4.388;2022-09-30T09:41:30;3.50;;;1.20;;
21546;SDS011;41275;51.912;4.388;2022-09-30T09:47:01;1.98;;;1.10;;
21546;SDS011;41275;51.912;4.388;2022-09-30T09:52:43;2.67;;;1.50;;
21546;SDS011;41275;51.912;4.388;2022-09-30T09:58:16;3.03;;;1.40;;
21546;SDS011;41275;51.912;4.388;2022-09-30T10:03:38;3.80;;;1.17;;
21546;SDS011;41275;51.912;4.388;2022-09-30T10:08:59;3.77;;;1.30;;
21546;SDS011;41275;51.912;4.388;2022-09-30T10:14:20;4.35;;;1.40;;
21546;SDS011;41275;51.912;4.388;2022-09-30T10:19:42;3.63;;;1.20;;
21546;SDS011;41275;51.912;4.388;2022-09-30T10:25:16;5.82;;;1.50;;
21546;SDS011;41275;51.912;4.388;2022-09-30T10:30:41;4.43;;;1.80;;
21546;SDS011;41275;51.912;4.388;2022-09-30T10:36:06;3.63;;;1.88;;
21546;SDS011;41275;51.912;4.388;2022-09-30T10:41:37;3.58;;;1.80;;
21546;SDS011;41275;51.912;4.388;2022-09-30T10:46:59;4.35;;;2.50;;
21546;SDS011;41275;51.912;4.388;2022-09-30T10:52:23;5.40;;;2.28;;
21546;SDS011;41275;51.912;4.388;2022-09-30T10:57:48;8.93;;;2.60;;
21546;SDS011;41275;51.912;4.388;2022-09-30T11:03:13;6.17;;;2.90;;
21546;SDS011;41275;51.912;4.388;2022-09-30T11:08:54;4.20;;;2.60;;
21546;SDS011;41275;51.912;4.388;2022-09-30T11:14:22;5.53;;;2.75;;
21546;SDS011;41275;51.912;4.388;2022-09-30T11:19:48;7.40;;;2.70;;
21546;SDS011;41275;51.912;4.388;2022-09-30T11:25:21;5.13;;;2.25;;
21546;SDS011;41275;51.912;4.388;2022-09-30T11:36:33;4.45;;;1.80;;
21546;SDS011;41275;51.912;4.388;2022-09-30T11:42:06;4.97;;;1.60;;
21546;SDS011;41275;51.912;4.388;2022-09-30T11:47:48;3.93;;;1.73;;
21546;SDS011;41275;51.912;4.388;2022-09-30T11:59:01;3.25;;;1.85;;
21546;SDS011;41275;51.912;4.388;2022-09-30T12:10:27;3.20;;;1.70;;
21546;SDS011;41275;51.912;4.388;2022-09-30T12:15:55;5.07;;;1.87;;
21546;SDS011;41275;51.912;4.388;2022-09-30T12:21:32;4.28;;;1.90;;
21546;SDS011;41275;51.912;4.388;2022-09-30T12:26:58;4.55;;;1.83;;
21546;SDS011;41275;51.912;4.388;2022-09-30T12:49:36;3.90;;;1.33;;
21546;SDS011;41275;51.912;4.388;2022-09-30T12:55:01;2.70;;;1.37;;
21546;SDS011;41275;51.912;4.388;2022-09-30T13:00:29;2.33;;;1.20;;
21546;SDS011;41275;51.912;4.388;2022-09-30T13:05:56;3.10;;;1.17;;
21546;SDS011;41275;51.912;4.388;2022-09-30T13:11:33;2.22;;;1.20;;
21546;SDS011;41275;51.912;4.388;2022-09-30T13:17:03;2.40;;;1.30;;
21546;SDS011;41275;51.912;4.388;2022-09-30T13:28:37;4.33;;;1.40;;
21546;SDS011;41275;51.912;4.388;2022-09-30T13:33:42;2.25;;;1.30;;
21546;SDS011;41275;51.912;4.388;2022-09-30T13:39:18;3.22;;;1.40;;
21546;SDS011;41275;51.912;4.388;2022-09-30T13:50:29;5.53;;;1.73;;
21546;SDS011;41275;51.912;4.388;2022-09-30T13:55:52;4.15;;;1.75;;
21546;SDS011;41275;51.912;4.388;2022-09-30T14:12:41;3.65;;;2.13;;
21546;SDS011;41275;51.912;4.388;2022-09-30T14:24:08;7.80;;;2.73;;
21546;SDS011;41275;51.912;4.388;2022-09-30T14:34:59;4.00;;;2.50;;
21546;SDS011;41275;51.912;4.388;2022-09-30T14:40:30;4.75;;;2.90;;
21546;SDS011;41275;51.912;4.388;2022-09-30T14:45:53;5.30;;;2.53;;
21546;SDS011;41275;51.912;4.388;2022-09-30T14:51:16;5.25;;;2.80;;
21546;SDS011;41275;51.912;4.388;2022-09-30T14:56:39;5.33;;;2.70;;
21546;SDS011;41275;51.912;4.388;2022-09-30T15:02:02;4.03;;;2.33;;
21546;SDS011;41275;51.912;4.388;2022-09-30T15:07:30;4.40;;;2.47;;
21546;SDS011;41275;51.912;4.388;2022-09-30T15:12:52;6.38;;;2.65;;
21546;SDS011;41275;51.912;4.388;2022-09-30T15:18:28;5.83;;;2.60;;
21546;SDS011;41275;51.912;4.388;2022-09-30T15:23:56;3.75;;;2.15;;
21546;SDS011;41275;51.912;4.388;2022-09-30T15:29:20;4.87;;;2.10;;
21546;SDS011;41275;51.912;4.388;2022-09-30T15:34:41;4.70;;;2.03;;
21546;SDS011;41275;51.912;4.388;2022-09-30T15:40:12;4.47;;;1.95;;
21546;SDS011;41275;51.912;4.388;2022-09-30T15:45:58;4.18;;;1.90;;
21546;SDS011;41275;51.912;4.388;2022-09-30T15:51:41;2.97;;;1.80;;
21546;SDS011;41275;51.912;4.388;2022-09-30T15:57:32;4.90;;;2.17;;
21546;SDS011;41275;51.912;4.388;2022-09-30T16:03:05;4.05;;;2.33;;
21546;SDS011;41275;51.912;4.388;2022-09-30T16:08:27;4.32;;;1.80;;
21546;SDS011;41275;51.912;4.388;2022-09-30T16:13:52;6.00;;;1.90;;
21546;SDS011;41275;51.912;4.388;2022-09-30T16:19:16;3.28;;;2.08;;
21546;SDS011;41275;51.912;4.388;2022-09-30T16:24:39;3.20;;;1.80;;
21546;SDS011;41275;51.912;4.388;2022-09-30T16:30:01;4.40;;;1.40;;
21546;SDS011;41275;51.912;4.388;2022-09-30T16:35:25;2.85;;;1.55;;
21546;SDS011;41275;51.912;4.388;2022-09-30T16:40:48;3.30;;;1.85;;
21546;SDS011;41275;51.912;4.388;2022-09-30T16:46:09;6.43;;;2.20;;
21546;SDS011;41275;51.912;4.388;2022-09-30T16:51:31;4.07;;;1.80;;
21546;SDS011;41275;51.912;4.388;2022-09-30T16:56:52;5.13;;;1.98;;
21546;SDS011;41275;51.912;4.388;2022-09-30T17:02:13;3.30;;;1.70;;
21546;SDS011;41275;51.912;4.388;2022-09-30T17:07:35;4.28;;;1.90;;
21546;SDS011;41275;51.912;4.388;2022-09-30T17:12:56;6.10;;;1.85;;
21546;SDS011;41275;51.912;4.388;2022-09-30T17:18:23;5.82;;;2.00;;
21546;SDS011;41275;51.912;4.388;2022-09-30T17:23:44;4.32;;;1.90;;
21546;SDS011;41275;51.912;4.388;2022-09-30T17:29:07;4.83;;;1.90;;
21546;SDS011;41275;51.912;4.388;2022-09-30T17:34:30;4.88;;;2.33;;
21546;SDS011;41275;51.912;4.388;2022-09-30T17:39:52;5.50;;;2.33;;
21546;SDS011;41275;51.912;4.388;2022-09-30T17:45:13;4.38;;;2.13;;
21546;SDS011;41275;51.912;4.388;2022-09-30T17:50:35;5.70;;;2.23;;
21546;SDS011;41275;51.912;4.388;2022-09-30T17:56:01;3.20;;;1.93;;
21546;SDS011;41275;51.912;4.388;2022-09-30T18:01:32;4.97;;;2.83;;
21546;SDS011;41275;51.912;4.388;2022-09-30T18:06:54;5.33;;;2.00;;
21546;SDS011;41275;51.912;4.388;2022-09-30T18:12:16;3.30;;;2.08;;
21546;SDS011;41275;51.912;4.388;2022-09-30T18:17:37;4.40;;;1.77;;
21546;SDS011;41275;51.912;4.388;2022-09-30T18:22:58;4.60;;;2.63;;
21546;SDS011;41275;51.912;4.388;2022-09-30T18:28:19;5.45;;;2.35;;
21546;SDS011;41275;51.912;4.388;2022-09-30T18:33:41;3.23;;;1.87;;
21546;SDS011;41275;51.912;4.388;2022-09-30T18:39:02;5.30;;;1.65;;
21546;SDS011;41275;51.912;4.388;2022-09-30T18:44:24;3.92;;;1.83;;
21546;SDS011;41275;51.912;4.388;2022-09-30T18:49:45;2.80;;;1.40;;
21546;SDS011;41275;51.912;4.388;2022-09-30T18:55:07;4.22;;;1.58;;
21546;SDS011;41275;51.912;4.388;2022-09-30T19:00:29;5.82;;;1.85;;
21546;SDS011;41275;51.912;4.388;2022-09-30T19:05:50;3.20;;;1.60;;
21546;SDS011;41275;51.912;4.388;2022-09-30T19:11:12;3.33;;;1.63;;
21546;SDS011;41275;51.912;4.388;2022-09-30T19:16:37;3.47;;;1.40;;
21546;SDS011;41275;51.912;4.388;2022-09-30T19:21:59;6.33;;;2.00;;
21546;SDS011;41275;51.912;4.388;2022-09-30T19:27:22;4.22;;;1.80;;
21546;SDS011;41275;51.912;4.388;2022-09-30T19:32:46;5.03;;;2.15;;
21546;SDS011;41275;51.912;4.388;2022-09-30T19:38:09;3.70;;;1.67;;
21546;SDS011;41275;51.912;4.388;2022-09-30T19:43:31;3.13;;;1.80;;
21546;SDS011;41275;51.912;4.388;2022-09-30T19:48:53;5.38;;;1.92;;
21546;SDS011;41275;51.912;4.388;2022-09-30T19:54:15;7.97;;;2.40;;
21546;SDS011;41275;51.912;4.388;2022-09-30T19:59:36;4.07;;;2.13;;
21546;SDS011;41275;51.912;4.388;2022-09-30T20:04:58;3.90;;;1.80;;
21546;SDS011;41275;51.912;4.388;2022-09-30T20:10:20;3.30;;;1.50;;
21546;SDS011;41275;51.912;4.388;2022-09-30T20:15:41;6.35;;;2.08;;
21546;SDS011;41275;51.912;4.388;2022-09-30T20:21:12;4.03;;;1.90;;
21546;SDS011;41275;51.912;4.388;2022-09-30T20:26:35;5.30;;;2.30;;
21546;SDS011;41275;51.912;4.388;2022-09-30T20:31:57;4.60;;;1.90;;
21546;SDS011;41275;51.912;4.388;2022-09-30T20:37:21;4.40;;;1.98;;
21546;SDS011;41275;51.912;4.388;2022-09-30T20:42:45;6.82;;;2.13;;
21546;SDS011;41275;51.912;4.388;2022-09-30T20:48:06;4.38;;;2.10;;
21546;SDS011;41275;51.912;4.388;2022-09-30T20:53:28;2.90;;;2.08;;
21546;SDS011;41275;51.912;4.388;2022-09-30T20:58:52;4.20;;;1.90;;
21546;SDS011;41275;51.912;4.388;2022-09-30T21:04:14;4.53;;;2.10;;
21546;SDS011;41275;51.912;4.388;2022-09-30T21:09:44;4.55;;;2.10;;
21546;SDS011;41275;51.912;4.388;2022-09-30T21:15:06;3.33;;;1.90;;
21546;SDS011;41275;51.912;4.388;2022-09-30T21:20:27;4.70;;;1.70;;
21546;SDS011;41275;51.912;4.388;2022-09-30T21:25:54;6.27;;;2.40;;
21546;SDS011;41275;51.912;4.388;2022-09-30T21:31:17;4.15;;;1.63;;
21546;SDS011;41275;51.912;4.388;2022-09-30T21:36:41;2.80;;;1.73;;
21546;SDS011;41275;51.912;4.388;2022-09-30T21:42:02;4.73;;;2.07;;
21546;SDS011;41275;51.912;4.388;2022-09-30T21:47:24;4.80;;;2.20;;
21546;SDS011;41275;51.912;4.388;2022-09-30T21:52:45;3.30;;;2.10;;
21546;SDS011;41275;51.912;4.388;2022-09-30T21:58:07;4.70;;;2.50;;
21546;SDS011;41275;51.912;4.388;2022-09-30T22:03:48;6.28;;;2.50;;
21546;SDS011;41275;51.912;4.388;2022-09-30T22:09:09;5.93;;;2.47;;
21546;SDS011;41275;51.912;4.388;2022-09-30T22:14:31;5.15;;;2.92;;
21546;SDS011;41275;51.912;4.388;2022-09-30T22:19:52;6.00;;;2.40;;
21546;SDS011;41275;51.912;4.388;2022-09-30T22:25:15;4.90;;;2.38;;
21546;SDS011;41275;51.912;4.388;2022-09-30T22:30:36;5.47;;;2.50;;
21546;SDS011;41275;51.912;4.388;2022-09-30T22:35:57;4.97;;;2.58;;
21546;SDS011;41275;51.912;4.388;2022-09-30T22:41:37;3.77;;;2.50;;
21546;SDS011;41275;51.912;4.388;2022-09-30T22:46:59;4.95;;;2.47;;
21546;SDS011;41275;51.912;4.388;2022-09-30T22:52:21;4.25;;;2.90;;
21546;SDS011;41275;51.912;4.388;2022-09-30T22:57:42;4.20;;;2.47;;
21546;SDS011;41275;51.912;4.388;2022-09-30T23:03:03;6.05;;;2.70;;
21546;SDS011;41275;51.912;4.388;2022-09-30T23:08:31;3.95;;;2.47;;
21546;SDS011;41275;51.912;4.388;2022-09-30T23:14:01;6.07;;;2.40;;
21546;SDS011;41275;51.912;4.388;2022-09-30T23:19:22;5.50;;;2.85;;
21546;SDS011;41275;51.912;4.388;2022-09-30T23:24:44;6.72;;;2.92;;
21546;SDS011;41275;51.912;4.388;2022-09-30T23:30:05;4.15;;;2.40;;
21546;SDS011;41275;51.912;4.388;2022-09-30T23:35:27;5.60;;;2.53;;
21546;SDS011;41275;51.912;4.388;2022-09-30T23:40:48;4.35;;;2.65;;
21546;SDS011;41275;51.912;4.388;2022-09-30T23:46:10;5.03;;;2.63;;
21546;SDS011;41275;51.912;4.388;2022-09-30T23:51:31;5.15;;;2.47;;
21546;SDS011;41275;51.912;4.388;2022-09-30T23:56:53;6.45;;;2.50;;
